Time;durP1;ratioP1;P1;durP2;ratioP2;P2;SDS_P1;SDS_P2;PMS_P1;PMS_P2;Temp;Humidity;BMP_temperature;BMP_pressure;BME280_temperature;BME280_humidity;BME280_pressure;Samples;Min_cycle;Max_cycle;Signal;HPM_P1;HPM_P2
2023/04/23 00:01:39;;;;;;;3.17;2.22;;;;;;;17.59;56.66;96155.06;10363047;28;20488;-34
2023/04/23 00:06:41;;;;;;;5.13;2.65;;;;;;;17.54;55.95;96164.38;10353416;28;20488;-34
2023/04/23 00:11:42;;;;;;;4.78;2.08;;;;;;;17.52;55.77;96166.06;10359661;28;20051;-33
2023/04/23 00:16:43;;;;;;;5.07;2.70;;;;;;;17.50;55.77;96165.25;10372617;28;20033;-33
2023/04/23 00:21:44;;;;;;;3.50;2.28;;;;;;;17.49;55.81;96163.56;10357742;28;20058;-33
2023/04/23 00:26:44;;;;;;;5.30;2.08;;;;;;;17.48;55.50;96161.88;10345658;28;20037;-38
2023/04/23 00:31:44;;;;;;;3.87;2.30;;;;;;;17.45;55.85;96161.88;10368742;28;20030;-38
2023/04/23 00:36:45;;;;;;;4.95;2.50;;;;;;;17.54;61.02;96169.44;10358237;28;20088;-33
2023/04/23 00:41:45;;;;;;;4.77;2.50;;;;;;;17.66;60.67;96171.91;10353810;28;20029;-34
2023/04/23 00:46:46;;;;;;;5.80;2.97;;;;;;;17.64;61.07;96166.00;10370622;28;20037;-34
2023/04/23 00:51:47;;;;;;;4.60;2.22;;;;;;;17.56;56.60;96176.16;10351940;28;20038;-33
2023/04/23 00:56:48;;;;;;;2.67;1.90;;;;;;;17.51;56.11;96171.97;10359397;28;20060;-34
2023/04/23 01:01:49;;;;;;;6.85;2.50;;;;;;;17.50;55.85;96177.91;10370546;28;20496;-33
2023/04/23 01:06:49;;;;;;;4.55;1.80;;;;;;;17.47;55.71;96170.31;10362288;28;20033;-33
2023/04/23 01:11:53;;;;;;;2.60;1.80;;;;;;;17.46;55.78;96179.59;10365018;28;20481;-34
2023/04/23 01:16:55;;;;;;;2.75;1.90;;;;;;;17.45;55.50;96184.66;10370232;28;20053;-34
2023/04/23 01:21:58;;;;;;;2.90;1.50;;;;;;;17.44;55.97;96175.38;10357877;28;20030;-33
2023/04/23 01:27:00;;;;;;;5.63;2.03;;;;;;;17.51;60.20;96182.09;10343697;28;20227;-34
2023/04/23 01:32:02;;;;;;;3.88;2.60;;;;;;;17.64;60.50;96179.50;10351242;28;20172;-34
2023/04/23 01:37:03;;;;;;;6.00;2.88;;;;;;;17.64;61.16;96179.50;10361295;28;20488;-34
2023/04/23 01:42:06;;;;;;;7.03;3.03;;;;;;;17.58;58.22;96178.69;10362120;28;20037;-34
2023/04/23 01:47:06;;;;;;;5.07;2.10;;;;;;;17.52;56.13;96173.66;10360611;28;20340;-34
2023/04/23 01:52:06;;;;;;;3.70;2.15;;;;;;;17.49;55.68;96168.63;10357639;28;20113;-33
2023/04/23 01:57:08;;;;;;;5.20;2.20;;;;;;;17.49;55.44;96173.69;10359493;28;20081;-34
2023/04/23 02:02:12;;;;;;;2.25;1.50;;;;;;;17.49;55.38;96171.16;10356405;28;20400;-31
2023/04/23 02:07:15;;;;;;;4.18;1.95;;;;;;;17.49;55.35;96161.03;10360586;28;20038;-31
2023/04/23 02:12:15;;;;;;;3.42;1.80;;;;;;;17.48;55.07;96159.34;10353006;28;20037;-32
2023/04/23 02:17:16;;;;;;;3.40;2.10;;;;;;;17.46;55.00;96159.34;10353645;28;20038;-31
2023/04/23 02:22:17;;;;;;;3.13;2.00;;;;;;;17.61;59.08;96160.97;10356872;28;20292;-32
2023/04/23 02:27:18;;;;;;;5.28;2.70;;;;;;;17.72;60.54;96164.25;10364965;28;20470;-31
2023/04/23 02:32:18;;;;;;;3.95;2.42;;;;;;;17.65;59.23;96167.69;10365783;28;20069;-32
2023/04/23 02:37:20;;;;;;;3.58;1.98;;;;;;;17.54;55.84;96162.69;10359689;28;20054;-32
2023/04/23 02:42:20;;;;;;;2.47;1.35;;;;;;;17.52;55.53;96150.88;10359015;28;20038;-32
2023/04/23 02:47:21;;;;;;;3.67;1.70;;;;;;;17.49;55.41;96154.25;10352149;28;20035;-31
2023/04/23 02:52:21;;;;;;;2.40;1.50;;;;;;;17.47;55.26;96150.06;10365774;28;20038;-31
2023/04/23 02:57:22;;;;;;;2.53;1.37;;;;;;;17.46;55.30;96144.16;10361079;28;20026;-32
2023/04/23 03:02:22;;;;;;;3.95;1.90;;;;;;;17.46;55.13;96153.44;10389723;23;20103;-25
2023/04/23 03:07:23;;;;;;;2.22;1.40;;;;;;;17.45;55.08;96149.22;10396268;28;20101;-26
2023/04/23 03:12:23;;;;;;;3.53;2.53;;;;;;;17.48;59.49;96152.59;10405667;28;20039;-25
2023/04/23 03:17:24;;;;;;;4.10;2.60;;;;;;;17.65;59.90;96165.16;10411468;28;20060;-25
2023/04/23 03:22:24;;;;;;;3.15;2.08;;;;;;;17.68;60.99;96162.59;10413923;28;20025;-25
2023/04/23 03:27:24;;;;;;;4.77;2.50;;;;;;;17.58;57.64;96161.81;10406874;28;20030;-26
2023/04/23 03:32:25;;;;;;;4.30;1.43;;;;;;;17.52;55.69;96154.28;10474545;22;20308;-29
2023/04/23 03:37:26;;;;;;;3.53;1.90;;;;;;;17.50;55.22;96145.00;10412552;28;20549;-29
2023/04/23 03:42:27;;;;;;;5.40;1.98;;;;;;;17.48;55.37;96136.59;10411259;28;20279;-30
2023/04/23 03:47:27;;;;;;;2.47;1.58;;;;;;;17.48;55.19;96131.53;10411589;28;20033;-29
2023/04/23 03:52:28;;;;;;;1.98;1.38;;;;;;;17.48;55.02;96139.94;10412581;28;20029;-29
2023/04/23 03:57:29;;;;;;;2.28;1.33;;;;;;;17.47;54.94;96134.88;10410983;28;20440;-29
2023/04/23 04:02:40;;;;;;;2.38;1.30;;;;;;;17.46;54.91;96118.00;10411279;28;20033;-29
2023/04/23 04:07:41;;;;;;;3.55;1.52;;;;;;;17.56;58.45;96117.13;10401241;22;20479;-30
2023/04/23 04:12:43;;;;;;;3.95;1.95;;;;;;;17.67;60.14;96117.91;10366470;28;20038;-30
2023/04/23 04:17:44;;;;;;;4.53;2.05;;;;;;;17.65;59.81;96114.53;10361479;28;20027;-29
2023/04/23 04:22:45;;;;;;;2.00;1.30;;;;;;;17.56;55.38;96114.59;10349873;28;20040;-29
2023/04/23 04:27:46;;;;;;;2.17;1.52;;;;;;;17.52;55.42;96112.91;10343660;28;20045;-30
2023/04/23 04:32:49;;;;;;;2.15;1.33;;;;;;;17.48;55.45;96122.22;10346707;28;20030;-29
2023/04/23 04:43:06;;;;;;;;;;;;;;;17.45;55.22;96117.19;10356718;28;20049;-29
2023/04/23 04:48:07;;;;;;;2.20;1.15;;;;;;;17.43;55.32;96123.97;10364617;28;20371;-30
2023/04/23 04:53:08;;;;;;;1.50;1.25;;;;;;;17.43;54.93;96118.03;10341856;28;20457;-29
2023/04/23 04:58:08;;;;;;;1.50;1.07;;;;;;;17.40;55.25;96113.81;10341089;28;20091;-29
2023/04/23 05:03:08;;;;;;;2.37;2.03;;;;;;;17.58;59.20;96118.78;10345724;28;20034;-30
2023/04/23 05:08:09;;;;;;;3.53;2.07;;;;;;;17.68;60.63;96129.69;10334161;28;20049;-29
2023/04/23 05:13:09;;;;;;;1.83;1.33;;;;;;;17.61;56.13;96120.47;10343032;28;20300;-29
2023/04/23 05:18:10;;;;;;;2.17;1.58;;;;;;;17.60;55.47;96123.84;10341705;28;20656;-29
2023/04/23 05:23:10;;;;;;;1.93;1.77;;;;;;;17.59;55.04;96119.63;10338333;28;20038;-29
2023/04/23 05:28:11;;;;;;;2.87;1.67;;;;;;;17.58;55.22;96123.03;10339077;28;20291;-29
2023/04/23 05:33:11;;;;;;;2.72;1.70;;;;;;;17.57;55.18;96119.63;10342060;28;20037;-30
2023/04/23 05:38:12;;;;;;;1.65;1.35;;;;;;;17.57;54.82;96116.28;10332444;28;20035;-30
2023/04/23 05:43:14;;;;;;;3.30;1.60;;;;;;;17.56;54.76;96114.59;10342879;28;20511;-29
2023/04/23 05:48:15;;;;;;;2.25;1.30;;;;;;;17.55;54.96;96100.25;10328257;28;20305;-29
2023/04/23 05:53:15;;;;;;;3.33;1.60;;;;;;;17.57;54.80;96101.09;10347909;28;20437;-29
2023/04/23 05:58:17;;;;;;;3.40;1.80;;;;;;;17.69;58.82;96098.47;10341667;28;20038;-28
2023/04/23 06:03:18;;;;;;;4.07;1.83;;;;;;;17.75;58.77;96100.97;10341342;28;20768;-29
2023/04/23 06:08:19;;;;;;;1.88;1.33;;;;;;;17.67;54.80;96107.78;10334552;28;20034;-30
2023/04/23 06:13:20;;;;;;;1.70;1.13;;;;;;;17.64;55.13;96112.84;10355373;28;20084;-29
2023/04/23 06:18:20;;;;;;;2.22;1.33;;;;;;;17.61;54.62;96102.75;10346306;28;20061;-29
2023/04/23 06:23:20;;;;;;;2.57;1.13;;;;;;;17.60;54.76;96096.00;10345616;28;20026;-29
2023/04/23 06:28:21;;;;;;;1.90;0.97;;;;;;;17.58;55.29;96088.41;10343685;28;20030;-29
2023/04/23 06:33:41;;;;;;;1.70;1.50;;;;;;;17.60;54.47;96085.88;10327082;28;20150;-29
2023/04/23 06:38:43;;;;;;;1.75;1.00;;;;;;;17.61;54.68;96087.56;10334280;28;20680;-29
2023/04/23 06:43:44;;;;;;;3.40;1.08;;;;;;;17.61;54.79;96068.16;10345840;28;20034;-29
2023/04/23 06:48:55;;;;;;;2.38;1.15;;;;;;;17.61;55.05;96068.16;10336135;28;20058;-29
2023/04/23 06:53:56;;;;;;;2.77;0.80;;;;;;;17.72;58.25;96076.50;10335977;28;20455;-29
2023/04/23 06:58:56;;;;;;;1.75;1.00;;;;;;;17.71;57.44;96068.91;10350056;28;20042;-29
2023/04/23 07:03:56;;;;;;;1.02;0.80;;;;;;;17.67;55.16;96068.09;10347469;28;20196;-29
2023/04/23 07:08:57;;;;;;;1.13;0.70;;;;;;;17.64;54.64;96049.56;10349479;28;20171;-29
2023/04/23 07:13:58;;;;;;;2.25;0.93;;;;;;;17.62;54.52;96047.06;10351775;28;20428;-29
2023/04/23 07:19:00;;;;;;;2.05;1.85;;;;;;;17.61;54.63;96042.00;10349924;28;20393;-29
2023/04/23 07:24:06;;;;;;;2.35;0.95;;;;;;;17.60;54.57;96041.16;10344256;28;20049;-29
2023/04/23 07:29:09;;;;;;;2.35;0.98;;;;;;;17.60;54.65;96035.25;10341426;28;20030;-29
2023/04/23 07:34:10;;;;;;;1.80;1.60;;;;;;;17.58;54.32;96021.78;10345316;28;20070;-29
2023/04/23 07:39:10;;;;;;;3.60;0.80;;;;;;;17.57;54.42;96015.88;10340742;28;20026;-29
2023/04/23 07:44:10;;;;;;;1.67;0.90;;;;;;;17.59;55.40;96011.63;10340866;28;20034;-29
2023/04/23 07:49:11;;;;;;;2.90;1.10;;;;;;;17.72;57.45;96010.69;10346644;28;20054;-29
2023/04/23 07:54:11;;;;;;;6.20;1.83;;;;;;;17.74;58.04;96013.22;10339918;28;20034;-30
2023/04/23 07:59:11;;;;;;;1.73;1.10;;;;;;;17.66;54.88;96014.97;10330385;28;20034;-29
2023/04/23 08:04:12;;;;;;;3.60;0.90;;;;;;;17.61;54.64;96009.94;10326701;28;20034;-30
2023/04/23 08:09:13;;;;;;;2.15;1.00;;;;;;;17.58;54.73;96002.34;10326079;28;20498;-29
2023/04/23 08:14:13;;;;;;;1.33;1.10;;;;;;;17.60;54.89;95994.75;10331406;28;20068;-29
2023/04/23 08:19:13;;;;;;;2.17;1.20;;;;;;;17.59;54.34;95993.91;10358223;28;20045;-29
2023/04/23 08:24:14;;;;;;;2.37;1.00;;;;;;;17.58;54.47;95982.09;10340060;28;20041;-29
2023/04/23 08:29:14;;;;;;;1.40;1.00;;;;;;;17.57;54.39;95982.16;10345001;28;20030;-30
2023/04/23 08:34:14;;;;;;;2.03;1.33;;;;;;;17.52;55.41;95973.72;10350157;28;20034;-29
2023/04/23 08:39:15;;;;;;;2.70;1.00;;;;;;;17.56;54.35;95963.56;10343955;28;20117;-30
2023/04/23 08:44:23;;;;;;;5.90;1.40;;;;;;;17.70;56.27;95965.97;10329366;28;20089;-30
2023/04/23 08:49:29;;;;;;;1.92;1.25;;;;;;;17.72;55.68;95959.22;10333178;28;20444;-30
2023/04/23 08:54:33;;;;;;;4.03;0.90;;;;;;;17.65;54.53;95957.59;10341780;28;20030;-30
2023/04/23 08:59:34;;;;;;;2.05;0.90;;;;;;;17.61;54.05;95945.81;10346797;28;20085;-29
2023/04/23 09:04:36;;;;;;;1.42;1.02;;;;;;;17.56;53.79;95942.50;10328111;28;20038;-29
2023/04/23 09:09:38;;;;;;;2.35;0.90;;;;;;;17.56;53.92;95932.38;10339439;28;20154;-30
2023/04/23 09:14:38;;;;;;;1.77;1.63;;;;;;;17.52;53.83;95929.03;10354426;28;20105;-29
2023/04/23 09:19:39;;;;;;;1.80;1.10;;;;;;;17.53;53.96;95927.31;10356102;28;20060;-30
2023/04/23 09:24:42;;;;;;;4.53;1.00;;;;;;;17.54;54.93;95924.78;10334426;28;20039;-29
2023/04/23 09:29:43;;;;;;;3.10;0.90;;;;;;;17.57;54.62;95913.81;10329155;28;20027;-29
2023/04/23 09:34:44;;;;;;;1.58;0.90;;;;;;;17.70;56.49;95900.16;10343657;28;20034;-29
2023/04/23 09:39:44;;;;;;;1.85;0.85;;;;;;;17.75;56.35;95904.31;10337188;28;20037;-29
2023/04/23 09:44:55;;;;;;;1.97;0.83;;;;;;;17.67;54.71;95905.28;10345698;28;20042;-29
2023/04/23 09:49:55;;;;;;;3.00;0.90;;;;;;;17.59;54.16;95894.38;10330693;28;20289;-29
2023/04/23 09:55:00;;;;;;;4.93;1.10;;;;;;;17.55;53.78;95885.97;10335006;28;20045;-29
2023/04/23 10:00:13;;;;;;;2.60;0.80;;;;;;;17.53;54.05;95889.38;10350790;28;20030;-29
2023/04/23 10:05:15;;;;;;;2.38;0.68;;;;;;;17.52;53.72;95880.09;10349291;28;20045;-29
2023/04/23 10:10:17;;;;;;;1.17;0.93;;;;;;;17.51;53.98;95878.44;10353535;28;20062;-29
2023/04/23 10:15:17;;;;;;;3.47;0.93;;;;;;;17.52;53.64;95875.03;10352934;28;20045;-29
2023/04/23 10:20:20;;;;;;;7.28;1.42;;;;;;;17.47;54.08;95871.69;10348974;28;20484;-29
2023/04/23 10:25:23;;;;;;;2.50;0.90;;;;;;;17.45;53.72;95860.75;10342555;28;20037;-29
2023/04/23 10:30:24;;;;;;;1.75;0.93;;;;;;;17.62;54.97;95857.22;10337038;28;20038;-29
2023/04/23 10:35:24;;;;;;;1.27;0.68;;;;;;;17.71;54.94;95851.22;10339542;28;20042;-29
2023/04/23 10:40:31;;;;;;;2.28;0.70;;;;;;;17.67;54.40;95859.72;10348374;28;20030;-29
2023/04/23 10:45:31;;;;;;;1.48;0.80;;;;;;;17.57;53.62;95837.88;10356678;28;20042;-29
2023/04/23 10:50:35;;;;;;;0.75;0.70;;;;;;;17.52;53.35;95843.00;10344338;28;20076;-29
2023/04/23 10:55:35;;;;;;;2.50;0.80;;;;;;;17.49;53.67;95824.47;10341406;28;20038;-29
2023/04/23 11:00:42;;;;;;;2.53;0.60;;;;;;;17.46;53.40;95814.38;10345267;28;20034;-29
2023/04/23 11:05:43;;;;;;;2.85;0.70;;;;;;;17.47;53.60;95821.09;10334782;28;20042;-29
2023/04/23 11:10:55;;;;;;;1.60;0.70;;;;;;;17.43;53.55;95815.25;10329580;28;20424;-29
2023/04/23 11:16:20;;;;;;;0.98;0.70;;;;;;;17.44;53.39;95805.97;10342632;28;20466;-29
2023/04/23 11:21:21;;;;;;;1.55;0.73;;;;;;;17.43;53.54;95800.09;10329736;28;20047;-29
2023/04/23 11:26:26;;;;;;;3.00;0.80;;;;;;;17.55;55.23;95794.03;10338075;28;20026;-29
2023/04/23 11:31:27;;;;;;;2.70;0.65;;;;;;;17.67;56.66;95789.66;10345815;28;20030;-29
2023/04/23 11:36:28;;;;;;;1.30;0.85;;;;;;;17.63;55.23;95780.44;10348134;28;20026;-30
2023/04/23 11:41:29;;;;;;;1.30;0.70;;;;;;;17.53;53.87;95775.50;10351835;28;20042;-29
2023/04/23 11:46:29;;;;;;;1.40;0.60;;;;;;;17.49;53.46;95768.81;10337970;28;20467;-29
2023/04/23 11:51:29;;;;;;;0.80;0.60;;;;;;;17.45;53.51;95767.16;10345024;28;20068;-29
2023/04/23 11:56:30;;;;;;;1.10;0.70;;;;;;;17.46;53.45;95751.09;10350168;28;20391;-29
2023/04/23 12:01:49;;;;;;;2.97;0.70;;;;;;;17.48;54.04;95736.78;10355228;28;20280;-29
2023/04/23 12:06:50;;;;;;;5.25;1.15;;;;;;;17.54;55.50;95736.69;10353445;28;20046;-29
2023/04/23 12:11:51;;;;;;;4.80;1.10;;;;;;;17.54;54.49;95726.56;10332479;28;20177;-29
2023/04/23 12:16:52;;;;;;;2.13;1.05;;;;;;;17.50;54.26;95705.50;10354175;28;20042;-29
2023/04/23 12:22:02;;;;;;;3.15;0.90;;;;;;;17.57;54.79;95716.41;10347210;28;20113;-28
2023/04/23 12:27:02;;;;;;;3.55;0.98;;;;;;;17.70;54.46;95707.78;10350086;28;20030;-29
2023/04/23 12:32:03;;;;;;;1.40;1.03;;;;;;;17.71;54.19;95710.31;10351657;28;20030;-29
2023/04/23 12:37:06;;;;;;;2.70;1.17;;;;;;;17.62;53.48;95707.06;10338574;28;20064;-29
2023/04/23 12:42:08;;;;;;;1.52;0.70;;;;;;;17.62;53.09;95709.59;10351733;28;20281;-29
2023/04/23 12:47:10;;;;;;;3.40;0.85;;;;;;;17.60;52.91;95699.50;10344261;28;20488;-29
2023/04/23 12:52:10;;;;;;;3.33;1.00;;;;;;;17.60;52.83;95711.31;10345787;28;20554;-29
2023/04/23 12:57:13;;;;;;;3.53;0.60;;;;;;;17.61;52.71;95697.78;10343921;28;20101;-29
2023/04/23 13:02:13;;;;;;;2.50;0.70;;;;;;;17.58;53.01;95690.25;10352712;28;20034;-28
2023/04/23 13:07:14;;;;;;;6.85;1.05;;;;;;;17.63;53.80;95680.88;10347717;28;20511;-29
2023/04/23 13:12:14;;;;;;;3.20;0.70;;;;;;;17.64;53.61;95675.81;10346521;28;20044;-29
2023/04/23 13:17:15;;;;;;;8.07;0.97;;;;;;;17.67;56.62;95652.16;10345619;28;20030;-28
2023/04/23 13:22:15;;;;;;;10.93;1.40;;;;;;;17.75;56.32;95645.28;10354296;28;20030;-30
2023/04/23 13:27:15;;;;;;;6.37;1.00;;;;;;;17.75;56.50;95645.28;10348714;28;20034;-28
2023/04/23 13:32:16;;;;;;;5.10;1.00;;;;;;;17.67;53.72;95647.09;10349558;28;20042;-29
2023/04/23 13:37:16;;;;;;;2.80;1.13;;;;;;;17.63;53.41;95642.91;10346743;28;20124;-29
2023/04/23 13:42:17;;;;;;;1.50;0.80;;;;;;;17.59;53.47;95628.66;10349091;28;20072;-29
2023/04/23 13:47:17;;;;;;;1.23;0.60;;;;;;;17.59;53.66;95610.94;10334145;28;20022;-29
2023/04/23 13:52:17;;;;;;;1.53;0.70;;;;;;;17.56;53.41;95611.00;10338086;28;20050;-30
2023/04/23 13:57:18;;;;;;;2.80;0.73;;;;;;;17.57;53.48;95610.13;10347887;28;20402;-29
2023/04/23 14:02:18;;;;;;;5.13;1.83;;;;;;;17.55;53.40;95601.69;10347003;28;20030;-29
2023/04/23 14:07:18;;;;;;;1.85;0.80;;;;;;;17.55;53.40;95601.69;10343918;28;20073;-29
2023/04/23 14:12:19;;;;;;;1.37;0.93;;;;;;;17.57;54.03;95615.19;10336409;28;20042;-29
2023/04/23 14:17:20;;;;;;;2.97;1.33;;;;;;;17.71;57.93;95661.38;10345159;28;20076;-29
2023/04/23 14:22:20;;;;;;;3.33;1.00;;;;;;;17.73;57.92;95636.91;10338826;28;20027;-29
2023/04/23 14:27:20;;;;;;;2.03;1.07;;;;;;;17.64;54.41;95621.81;10340499;28;20296;-29
2023/04/23 14:32:21;;;;;;;3.00;1.10;;;;;;;17.60;53.93;95620.19;10341392;28;20293;-29
2023/04/23 14:37:21;;;;;;;2.55;0.95;;;;;;;17.57;53.71;95627.84;10325679;28;20554;-29
2023/04/23 14:42:23;;;;;;;9.40;0.82;;;;;;;17.50;55.81;95634.66;10320081;28;20054;-29
2023/04/23 14:47:25;;;;;;;3.83;0.90;;;;;;;17.54;54.32;95631.25;10333174;28;20038;-29
2023/04/23 14:52:25;;;;;;;2.70;1.10;;;;;;;17.52;53.73;95635.50;10321054;28;20046;-29
2023/04/23 14:57:27;;;;;;;1.08;0.77;;;;;;;17.51;53.65;95643.09;10316801;28;20538;-30
2023/04/23 15:02:27;;;;;;;2.60;0.82;;;;;;;17.50;53.68;95644.78;10325229;28;20459;-29
2023/04/23 15:07:29;;;;;;;7.40;1.10;;;;;;;17.46;53.77;95622.91;10349539;28;20095;-29
2023/04/23 15:12:41;;;;;;;5.25;1.20;;;;;;;17.52;56.01;95622.00;10347459;28;20038;-29
2023/04/23 15:17:42;;;;;;;4.93;0.82;;;;;;;17.66;58.88;95610.00;10332354;28;20412;-29
2023/04/23 15:22:44;;;;;;;5.73;1.60;;;;;;;17.73;59.24;95621.72;10359431;28;20029;-29
2023/04/23 15:27:44;;;;;;;1.70;0.70;;;;;;;17.63;56.32;95625.19;10344211;28;20112;-29
2023/04/23 15:32:45;;;;;;;4.13;0.90;;;;;;;17.58;54.34;95617.69;10344665;28;20076;-29
2023/04/23 15:37:45;;;;;;;2.50;0.70;;;;;;;17.63;54.45;95635.31;10334794;28;20026;-29
2023/04/23 15:42:46;;;;;;;4.80;1.30;;;;;;;17.63;55.60;95631.13;10353231;28;20019;-29
2023/04/23 15:47:47;;;;;;;0.40;0.40;;;;;;;17.66;53.71;95630.25;10351369;28;20812;-29
2023/04/23 15:52:47;;;;;;;1.60;0.67;;;;;;;17.66;53.92;95640.38;10339020;28;20045;-30
2023/04/23 15:57:47;;;;;;;6.13;1.00;;;;;;;17.66;54.43;95630.25;10341703;28;20042;-29
2023/04/23 16:02:48;;;;;;;7.83;1.17;;;;;;;17.67;54.15;95642.84;10338404;28;20302;-28
2023/04/23 16:07:49;;;;;;;6.87;1.00;;;;;;;17.65;53.73;95636.16;10338307;28;20459;-29
2023/04/23 16:12:49;;;;;;;2.85;1.08;;;;;;;17.74;58.22;95643.63;10347071;28;20026;-29
2023/04/23 16:17:51;;;;;;;4.07;1.27;;;;;;;17.79;58.62;95641.84;10340577;28;20038;-29
2023/04/23 16:22:51;;;;;;;7.70;0.90;;;;;;;17.70;55.78;95641.97;10329933;28;20030;-29
2023/04/23 16:27:52;;;;;;;3.33;0.80;;;;;;;17.70;54.36;95641.97;10331989;28;20186;-29
2023/04/23 16:32:52;;;;;;;4.35;1.20;;;;;;;17.61;54.27;95642.97;10327607;28;20087;-29
2023/04/23 16:37:53;;;;;;;2.03;0.80;;;;;;;17.63;54.37;95647.97;10341905;28;20408;-29
2023/04/23 16:42:53;;;;;;;3.70;1.00;;;;;;;17.63;55.56;95640.38;10325450;28;20050;-29
2023/04/23 16:47:54;;;;;;;2.85;0.70;;;;;;;17.58;54.06;95642.16;10342676;28;20639;-29
2023/04/23 16:52:54;;;;;;;4.10;1.30;;;;;;;17.57;53.69;95632.91;10348657;28;20040;-29
2023/04/23 16:57:54;;;;;;;1.58;0.70;;;;;;;17.57;53.85;95646.38;10341738;28;20961;-29
2023/04/23 17:02:55;;;;;;;1.83;0.80;;;;;;;17.56;53.62;95654.00;10339632;28;20038;-29
2023/04/23 17:07:56;;;;;;;7.82;1.70;;;;;;;17.58;56.56;95652.28;10327008;28;20085;-29
2023/04/23 17:12:56;;;;;;;3.80;1.30;;;;;;;17.74;58.61;95653.75;10336641;28;20030;-29
2023/04/23 17:17:56;;;;;;;5.60;1.73;;;;;;;17.77;59.79;95639.38;10332077;28;20493;-28
2023/04/23 17:22:57;;;;;;;2.20;0.77;;;;;;;17.65;55.33;95638.69;10336385;28;20217;-29
2023/04/23 17:27:57;;;;;;;2.10;1.10;;;;;;;17.58;54.02;95632.03;10340063;28;20042;-29
2023/04/23 17:32:58;;;;;;;3.20;1.20;;;;;;;17.56;54.18;95636.28;10348126;28;20034;-29
2023/04/23 17:37:58;;;;;;;12.85;1.95;;;;;;;17.54;57.71;95655.69;10338292;28;20584;-29
2023/04/23 17:42:58;;;;;;;6.97;1.77;;;;;;;17.54;55.31;95679.31;10335524;28;20065;-29
2023/04/23 17:47:59;;;;;;;15.33;1.77;;;;;;;17.54;54.85;95721.50;10347747;28;20057;-29
2023/04/23 17:52:59;;;;;;;8.80;1.00;;;;;;;17.51;53.91;95741.78;10328863;28;20460;-29
2023/04/23 17:58:04;;;;;;;3.60;0.80;;;;;;;17.51;53.82;95764.56;10353646;28;20049;-29
2023/04/23 18:03:05;;;;;;;7.10;1.27;;;;;;;17.50;54.31;95790.72;10339663;28;20025;-29
2023/04/23 18:08:07;;;;;;;12.52;2.65;;;;;;;17.70;59.19;95806.50;10324380;28;20516;-29
2023/04/23 18:13:10;;;;;;;7.32;1.33;;;;;;;17.77;58.91;95798.00;10330036;28;20040;-29
2023/04/23 18:18:11;;;;;;;8.50;2.38;;;;;;;17.66;56.95;95792.22;10337319;28;20038;-28
2023/04/23 18:23:12;;;;;;;3.70;0.98;;;;;;;17.58;54.33;95794.00;10318129;28;20026;-29
2023/04/23 18:28:13;;;;;;;3.40;0.90;;;;;;;17.52;54.25;95794.06;10335521;28;20029;-29
2023/04/23 18:33:39;;;;;;;4.03;0.85;;;;;;;17.39;56.00;95808.53;10336216;28;20037;-29
2023/04/23 18:38:46;;;;;;;4.30;1.27;;;;;;;17.45;54.44;95803.44;10327654;28;20499;-29
2023/04/23 18:43:47;;;;;;;3.88;1.13;;;;;;;17.45;53.76;95802.56;10322526;28;20034;-29
2023/04/23 18:49:07;;;;;;;3.60;0.80;;;;;;;17.45;54.21;95797.50;10320699;28;20046;-29
2023/04/23 18:54:07;;;;;;;3.35;1.00;;;;;;;17.41;53.90;95804.28;10329174;28;20088;-29
2023/04/23 18:59:08;;;;;;;3.03;0.90;;;;;;;17.42;53.61;95818.63;10311908;28;20498;-29
2023/04/23 19:04:08;;;;;;;5.27;1.07;;;;;;;17.60;60.12;95807.47;10339273;28;20056;-29
2023/04/23 19:09:09;;;;;;;4.72;1.35;;;;;;;17.69;60.14;95798.09;10341288;28;20336;-30
2023/04/23 19:14:09;;;;;;;1.23;0.80;;;;;;;17.65;58.21;95798.16;10342666;28;20039;-29
2023/04/23 19:19:10;;;;;;;4.30;0.90;;;;;;;17.54;55.12;95787.28;10328804;28;20033;-29
2023/04/23 19:24:10;;;;;;;2.15;1.00;;;;;;;17.48;54.44;95783.13;10341371;28;20779;-29
2023/04/23 19:29:10;;;;;;;1.95;1.13;;;;;;;17.45;54.12;95792.44;10346121;28;20467;-29
2023/04/23 19:34:12;;;;;;;3.40;1.10;;;;;;;17.43;53.75;95800.09;10338472;28;20550;-30
2023/04/23 19:39:12;;;;;;;3.55;0.90;;;;;;;17.42;53.98;95802.63;10336217;28;20775;-29
2023/04/23 19:44:12;;;;;;;2.57;0.70;;;;;;;17.40;53.88;95809.38;10342976;28;20041;-29
2023/04/23 19:49:13;;;;;;;3.07;0.90;;;;;;;17.40;53.62;95814.44;10331380;28;20034;-29
2023/04/23 19:54:13;;;;;;;1.83;0.50;;;;;;;17.40;53.66;95809.38;10340570;28;20034;-29
2023/04/23 19:59:15;;;;;;;2.33;0.53;;;;;;;17.35;53.25;95793.38;10344879;28;20030;-29
2023/04/23 20:04:16;;;;;;;2.25;0.85;;;;;;;17.60;56.52;95817.59;10347961;28;20045;-29
2023/04/23 20:09:20;;;;;;;2.37;0.80;;;;;;;17.71;59.36;95820.84;10345736;28;20488;-29
2023/04/23 20:14:21;;;;;;;1.20;0.50;;;;;;;17.67;57.12;95819.22;10354547;28;20289;-29
2023/04/23 20:19:24;;;;;;;2.13;0.60;;;;;;;17.55;54.45;95824.38;10333928;28;20734;-29
2023/04/23 20:24:24;;;;;;;1.65;0.75;;;;;;;17.49;54.23;95825.28;10337013;28;20034;-29
2023/04/23 20:29:26;;;;;;;1.00;0.70;;;;;;;17.49;53.91;95834.59;10344274;28;20037;-29
2023/04/23 20:34:26;;;;;;;0.63;0.40;;;;;;;17.48;53.77;95838.00;10349523;28;20057;-30
2023/04/23 20:39:27;;;;;;;1.53;0.67;;;;;;;17.46;53.54;95832.94;10325371;28;20040;-29
2023/04/23 20:44:27;;;;;;;7.33;1.00;;;;;;;17.44;53.89;95829.59;10351347;28;20030;-29
2023/04/23 20:49:28;;;;;;;0.65;0.50;;;;;;;17.45;53.72;95828.72;10345612;28;20049;-29
2023/04/23 20:54:28;;;;;;;4.83;0.67;;;;;;;17.46;53.66;95829.53;10347750;28;20054;-29
2023/04/23 20:59:28;;;;;;;1.17;0.50;;;;;;;17.45;53.65;95832.94;10345792;28;20040;-29
2023/04/23 21:04:29;;;;;;;3.90;1.48;;;;;;;17.61;56.27;95834.47;10345544;28;20034;-29
2023/04/23 21:09:29;;;;;;;7.67;1.17;;;;;;;17.72;60.06;95832.63;10341119;28;20038;-30
2023/04/23 21:14:31;;;;;;;1.73;0.70;;;;;;;17.71;58.70;95830.97;10344732;28;20034;-29
2023/04/23 21:19:31;;;;;;;6.13;0.90;;;;;;;17.59;55.20;95818.47;10333000;28;20436;-29
2023/04/23 21:24:32;;;;;;;0.60;0.50;;;;;;;17.51;54.40;95826.09;10323246;28;20050;-29
2023/04/23 21:29:32;;;;;;;1.37;0.40;;;;;;;17.49;54.37;95820.22;10347838;28;20126;-29
2023/04/23 21:34:32;;;;;;;1.93;0.77;;;;;;;17.46;54.25;95819.44;10354413;28;20034;-30
2023/04/23 21:39:33;;;;;;;1.67;0.60;;;;;;;17.46;54.09;95811.84;10342376;28;20038;-29
2023/04/23 21:44:34;;;;;;;0.60;0.50;;;;;;;17.46;54.65;95804.25;10355029;28;20145;-29
2023/04/23 21:49:35;;;;;;;1.55;0.90;;;;;;;17.43;54.32;95800.09;10350829;28;20125;-29
2023/04/23 21:54:36;;;;;;;1.33;0.60;;;;;;;17.42;54.06;95795.84;10341093;28;20042;-30
2023/04/23 21:59:36;;;;;;;1.20;0.40;;;;;;;17.43;54.03;95791.63;10357544;28;20042;-29
2023/04/23 22:04:37;;;;;;;1.83;0.83;;;;;;;17.53;57.91;95803.31;10331482;28;20113;-30
2023/04/23 22:09:38;;;;;;;1.48;0.90;;;;;;;17.65;60.38;95806.56;10346008;28;20068;-29
2023/04/23 22:14:38;;;;;;;2.60;0.90;;;;;;;17.69;58.80;95802.31;10340686;28;20042;-29
2023/04/23 22:19:39;;;;;;;2.87;0.60;;;;;;;17.60;57.64;95787.22;10345738;28;20044;-29
2023/04/23 22:24:39;;;;;;;0.93;0.88;;;;;;;17.50;54.87;95778.06;10342273;28;20645;-29
2023/04/23 22:29:39;;;;;;;2.90;1.03;;;;;;;17.46;54.43;95773.88;10346859;28;20041;-29
2023/04/23 22:34:40;;;;;;;0.77;0.60;;;;;;;17.43;54.39;95764.66;10344364;28;20660;-29
2023/04/23 22:39:40;;;;;;;0.70;0.55;;;;;;;17.43;54.69;95749.47;10338579;28;20787;-30
2023/04/23 22:44:41;;;;;;;0.40;0.40;;;;;;;17.41;54.38;95752.88;10345681;28;20045;-29
2023/04/23 22:49:43;;;;;;;1.27;0.50;;;;;;;17.41;54.48;95755.41;10352964;28;20296;-29
2023/04/23 22:54:43;;;;;;;2.22;0.57;;;;;;;17.40;54.21;95748.66;10347154;28;20030;-29
2023/04/23 22:59:44;;;;;;;1.52;0.32;;;;;;;17.40;54.49;95759.63;10340349;28;20030;-28
2023/04/23 23:04:44;;;;;;;1.10;0.50;;;;;;;17.40;54.23;95752.03;10352847;28;20041;-29
2023/04/23 23:09:44;;;;;;;1.98;0.93;;;;;;;17.59;59.68;95756.00;10343128;28;20306;-29
2023/04/23 23:14:45;;;;;;;4.67;0.60;;;;;;;17.65;60.63;95738.22;10346715;28;20038;-29
2023/04/23 23:19:45;;;;;;;1.07;0.70;;;;;;;17.63;58.96;95727.28;10344935;28;20045;-29
2023/04/23 23:24:46;;;;;;;8.20;0.60;;;;;;;17.52;57.47;95733.34;10354828;28;20046;-29